Aviation Digital Data Service (ADDS)

Output produced by METARs form (1827 UTC 25 March 2019)
found at http://www.aviationweather.gov/metar/data/
 
METAR text: DXXX 251800Z 18009KT 9999 FEW015 29/25 Q1010 NOSIG
Conditions at: DXXX (LOME/TOKOIN (MIL, TG) observed 1800 UTC 25 March 2019
Temperature: 29.0°C (84°F)
Dewpoint: 25.0°C (77°F) [RH = 79%]
Pressure (altimeter): 29.82 inches Hg (1010.0 mb)
Winds: from the S (180 degrees) at 10 MPH (9 knots; 4.6 m/s)
Visibility: 6 or more miles (10+ km)
Ceiling: at least 12,000 feet AGL
Clouds: few clouds at 1500 feet AGL
Weather: no significant weather observed at this time

METAR text: DXXX 251700Z 20009KT 9999 FEW015 30/25 Q1009 NOSIG
Conditions at: DXXX (LOME/TOKOIN (MIL, TG) observed 1700 UTC 25 March 2019
Temperature: 30.0°C (86°F)
Dewpoint: 25.0°C (77°F) [RH = 75%]
Pressure (altimeter): 29.79 inches Hg (1009.0 mb)
Winds: from the SSW (200 degrees) at 10 MPH (9 knots; 4.6 m/s)
Visibility: 6 or more miles (10+ km)
Ceiling: at least 12,000 feet AGL
Clouds: few clouds at 1500 feet AGL
Weather: no significant weather observed at this time

METAR text: DXXX 251600Z 20009KT 9999 FEW015 31/25 Q1009 NOSIG
Conditions at: DXXX (LOME/TOKOIN (MIL, TG) observed 1600 UTC 25 March 2019
Temperature: 31.0°C (88°F)
Dewpoint: 25.0°C (77°F) [RH = 71%]
Pressure (altimeter): 29.79 inches Hg (1009.0 mb)
Winds: from the SSW (200 degrees) at 10 MPH (9 knots; 4.6 m/s)
Visibility: 6 or more miles (10+ km)
Ceiling: at least 12,000 feet AGL
Clouds: few clouds at 1500 feet AGL
Weather: no significant weather observed at this time

METAR text: DXXX 251500Z 21009KT 9999 FEW015 31/25 Q1009 NOSIG
Conditions at: DXXX (LOME/TOKOIN (MIL, TG) observed 1500 UTC 25 March 2019
Temperature: 31.0°C (88°F)
Dewpoint: 25.0°C (77°F) [RH = 71%]
Pressure (altimeter): 29.79 inches Hg (1009.0 mb)
Winds: from the SSW (210 degrees) at 10 MPH (9 knots; 4.6 m/s)
Visibility: 6 or more miles (10+ km)
Ceiling: at least 12,000 feet AGL
Clouds: few clouds at 1500 feet AGL
Weather: no significant weather observed at this time

METAR text: DXXX 251400Z 19009KT 160V230 9999 FEW015 31/25 Q1010 NOSIG
Conditions at: DXXX (LOME/TOKOIN (MIL, TG) observed 1400 UTC 25 March 2019
Temperature: 31.0°C (88°F)
Dewpoint: 25.0°C (77°F) [RH = 71%]
Pressure (altimeter): 29.82 inches Hg (1010.0 mb)
Winds: from the S (190 degrees) at 10 MPH (9 knots; 4.6 m/s)
Visibility: 6 or more miles (10+ km)
Ceiling: at least 12,000 feet AGL
Clouds: few clouds at 1500 feet AGL
Weather: no significant weather observed at this time

METAR text: DXXX 251300Z 19009KT 160V220 9999 SCT014 31/25 Q1011 NOSIG
Conditions at: DXXX (LOME/TOKOIN (MIL, TG) observed 1300 UTC 25 March 2019
Temperature: 31.0°C (88°F)
Dewpoint: 25.0°C (77°F) [RH = 71%]
Pressure (altimeter): 29.85 inches Hg (1011.0 mb)
Winds: from the S (190 degrees) at 10 MPH (9 knots; 4.6 m/s)
Visibility: 6 or more miles (10+ km)
Ceiling: at least 12,000 feet AGL
Clouds: scattered clouds at 1400 feet AGL
Weather: no significant weather observed at this time

METAR text: DXXX 251200Z 19010KT 150V230 9999 SCT014 31/25 Q1012 NOSIG
Conditions at: DXXX (LOME/TOKOIN (MIL, TG) observed 1200 UTC 25 March 2019
Temperature: 31.0°C (88°F)
Dewpoint: 25.0°C (77°F) [RH = 71%]
Pressure (altimeter): 29.88 inches Hg (1012.0 mb)
Winds: from the S (190 degrees) at 12 MPH (10 knots; 5.1 m/s)
Visibility: 6 or more miles (10+ km)
Ceiling: at least 12,000 feet AGL
Clouds: scattered clouds at 1400 feet AGL
Weather: no significant weather observed at this time

METAR text: DXXX 251100Z 21008KT 170V250 9999 SCT014 31/25 Q1012 NOSIG
Conditions at: DXXX (LOME/TOKOIN (MIL, TG) observed 1100 UTC 25 March 2019
Temperature: 31.0°C (88°F)
Dewpoint: 25.0°C (77°F) [RH = 71%]
Pressure (altimeter): 29.88 inches Hg (1012.0 mb)
Winds: from the SSW (210 degrees) at 9 MPH (8 knots; 4.1 m/s)
Visibility: 6 or more miles (10+ km)
Ceiling: at least 12,000 feet AGL
Clouds: scattered clouds at 1400 feet AGL
Weather: no significant weather observed at this time

METAR text: DXXX 251000Z 21007KT 130V240 9999 SCT013 30/26 Q1013 NOSIG
Conditions at: DXXX (LOME/TOKOIN (MIL, TG) observed 1000 UTC 25 March 2019
Temperature: 30.0°C (86°F)
Dewpoint: 26.0°C (79°F) [RH = 79%]
Pressure (altimeter): 29.91 inches Hg (1013.0 mb)
Winds: from the SSW (210 degrees) at 8 MPH (7 knots; 3.6 m/s)
Visibility: 6 or more miles (10+ km)
Ceiling: at least 12,000 feet AGL
Clouds: scattered clouds at 1300 feet AGL
Weather: no significant weather observed at this time

METAR text: DXXX 250900Z 21010KT 180V240 9999 SCT013 30/25 Q1013 NOSIG
Conditions at: DXXX (LOME/TOKOIN (MIL, TG) observed 0900 UTC 25 March 2019
Temperature: 30.0°C (86°F)
Dewpoint: 25.0°C (77°F) [RH = 75%]
Pressure (altimeter): 29.91 inches Hg (1013.0 mb)
Winds: from the SSW (210 degrees) at 12 MPH (10 knots; 5.1 m/s)
Visibility: 6 or more miles (10+ km)
Ceiling: at least 12,000 feet AGL
Clouds: scattered clouds at 1300 feet AGL
Weather: no significant weather observed at this time

METAR text: DXXX 250800Z 21010KT 9999 SCT013 29/25 Q1012 NOSIG
Conditions at: DXXX (LOME/TOKOIN (MIL, TG) observed 0800 UTC 25 March 2019
Temperature: 29.0°C (84°F)
Dewpoint: 25.0°C (77°F) [RH = 79%]
Pressure (altimeter): 29.88 inches Hg (1012.0 mb)
Winds: from the SSW (210 degrees) at 12 MPH (10 knots; 5.1 m/s)
Visibility: 6 or more miles (10+ km)
Ceiling: at least 12,000 feet AGL
Clouds: scattered clouds at 1300 feet AGL
Weather: no significant weather observed at this time

METAR text: DXXX 250700Z 21008KT 9999 SCT013 28/25 Q1011 TEMPO BKN013
Conditions at: DXXX (LOME/TOKOIN (MIL, TG) observed 0700 UTC 25 March 2019
Temperature: 28.0°C (82°F)
Dewpoint: 25.0°C (77°F) [RH = 84%]
Pressure (altimeter): 29.85 inches Hg (1011.0 mb)
Winds: from the SSW (210 degrees) at 9 MPH (8 knots; 4.1 m/s)
Visibility: 6 or more miles (10+ km)
Ceiling: at least 12,000 feet AGL
Clouds: scattered clouds at 1300 feet AGL
Weather: no significant weather observed at this time

METAR text: DXXX 250600Z 22011KT 9999 FEW013 28/25 Q1010 NOSIG
Conditions at: DXXX (LOME/TOKOIN (MIL, TG) observed 0600 UTC 25 March 2019
Temperature: 28.0°C (82°F)
Dewpoint: 25.0°C (77°F) [RH = 84%]
Pressure (altimeter): 29.82 inches Hg (1010.0 mb)
Winds: from the SW (220 degrees) at 13 MPH (11 knots; 5.7 m/s)
Visibility: 6 or more miles (10+ km)
Ceiling: at least 12,000 feet AGL
Clouds: few clouds at 1300 feet AGL
Weather: no significant weather observed at this time

METAR text: DXXX 250500Z 22012KT 9999 FEW013 28/24 Q1009 NOSIG
Conditions at: DXXX (LOME/TOKOIN (MIL, TG) observed 0500 UTC 25 March 2019
Temperature: 28.0°C (82°F)
Dewpoint: 24.0°C (75°F) [RH = 79%]
Pressure (altimeter): 29.79 inches Hg (1009.0 mb)
Winds: from the SW (220 degrees) at 14 MPH (12 knots; 6.2 m/s)
Visibility: 6 or more miles (10+ km)
Ceiling: at least 12,000 feet AGL
Clouds: few clouds at 1300 feet AGL
Weather: no significant weather observed at this time

METAR text: DXXX 250400Z 22011KT 9999 FEW013 28/24 Q1010 NOSIG
Conditions at: DXXX (LOME/TOKOIN (MIL, TG) observed 0400 UTC 25 March 2019
Temperature: 28.0°C (82°F)
Dewpoint: 24.0°C (75°F) [RH = 79%]
Pressure (altimeter): 29.82 inches Hg (1010.0 mb)
Winds: from the SW (220 degrees) at 13 MPH (11 knots; 5.7 m/s)
Visibility: 6 or more miles (10+ km)
Ceiling: at least 12,000 feet AGL
Clouds: few clouds at 1300 feet AGL
Weather: no significant weather observed at this time

METAR text: DXXX 250300Z 22011KT 9999 SCT013 28/26 Q1009 NOSIG
Conditions at: DXXX (LOME/TOKOIN (MIL, TG) observed 0300 UTC 25 March 2019
Temperature: 28.0°C (82°F)
Dewpoint: 26.0°C (79°F) [RH = 89%]
Pressure (altimeter): 29.79 inches Hg (1009.0 mb)
Winds: from the SW (220 degrees) at 13 MPH (11 knots; 5.7 m/s)
Visibility: 6 or more miles (10+ km)
Ceiling: at least 12,000 feet AGL
Clouds: scattered clouds at 1300 feet AGL
Weather: no significant weather observed at this time

METAR text: DXXX 250200Z 21009KT 9999 SCT013 28/26 Q1010 NOSIG
Conditions at: DXXX (LOME/TOKOIN (MIL, TG) observed 0200 UTC 25 March 2019
Temperature: 28.0°C (82°F)
Dewpoint: 26.0°C (79°F) [RH = 89%]
Pressure (altimeter): 29.82 inches Hg (1010.0 mb)
Winds: from the SSW (210 degrees) at 10 MPH (9 knots; 4.6 m/s)
Visibility: 6 or more miles (10+ km)
Ceiling: at least 12,000 feet AGL
Clouds: scattered clouds at 1300 feet AGL
Weather: no significant weather observed at this time

METAR text: DXXX 250100Z 21009KT 9999 FEW013 28/25 Q1011 NOSIG
Conditions at: DXXX (LOME/TOKOIN (MIL, TG) observed 0100 UTC 25 March 2019
Temperature: 28.0°C (82°F)
Dewpoint: 25.0°C (77°F) [RH = 84%]
Pressure (altimeter): 29.85 inches Hg (1011.0 mb)
Winds: from the SSW (210 degrees) at 10 MPH (9 knots; 4.6 m/s)
Visibility: 6 or more miles (10+ km)
Ceiling: at least 12,000 feet AGL
Clouds: few clouds at 1300 feet AGL
Weather: no significant weather observed at this time

METAR text: DXXX 250000Z 22009KT 9999 FEW013 28/26 Q1012 NOSIG
Conditions at: DXXX (LOME/TOKOIN (MIL, TG) observed 0000 UTC 25 March 2019
Temperature: 28.0°C (82°F)
Dewpoint: 26.0°C (79°F) [RH = 89%]
Pressure (altimeter): 29.88 inches Hg (1012.0 mb)
Winds: from the SW (220 degrees) at 10 MPH (9 knots; 4.6 m/s)
Visibility: 6 or more miles (10+ km)
Ceiling: at least 12,000 feet AGL
Clouds: few clouds at 1300 feet AGL
Weather: no significant weather observed at this time

METAR text: DXXX 242300Z 22012KT 190V250 9999 SCT013 29/26 Q1013 NOSIG
Conditions at: DXXX (LOME/TOKOIN (MIL, TG) observed 2300 UTC 24 March 2019
Temperature: 29.0°C (84°F)
Dewpoint: 26.0°C (79°F) [RH = 84%]
Pressure (altimeter): 29.91 inches Hg (1013.0 mb)
Winds: from the SW (220 degrees) at 14 MPH (12 knots; 6.2 m/s)
Visibility: 6 or more miles (10+ km)
Ceiling: at least 12,000 feet AGL
Clouds: scattered clouds at 1300 feet AGL
Weather: no significant weather observed at this time

METAR text: DXXX 242200Z 21007KT 9999 FEW013 29/27 Q1013 NOSIG
Conditions at: DXXX (LOME/TOKOIN (MIL, TG) observed 2200 UTC 24 March 2019
Temperature: 29.0°C (84°F)
Dewpoint: 27.0°C (81°F) [RH = 89%]
Pressure (altimeter): 29.91 inches Hg (1013.0 mb)
Winds: from the SSW (210 degrees) at 8 MPH (7 knots; 3.6 m/s)
Visibility: 6 or more miles (10+ km)
Ceiling: at least 12,000 feet AGL
Clouds: few clouds at 1300 feet AGL
Weather: no significant weather observed at this time

METAR text: DXXX 242100Z 18010KT 9999 FEW013 28/26 Q1012 NOSIG
Conditions at: DXXX (LOME/TOKOIN (MIL, TG) observed 2100 UTC 24 March 2019
Temperature: 28.0°C (82°F)
Dewpoint: 26.0°C (79°F) [RH = 89%]
Pressure (altimeter): 29.88 inches Hg (1012.0 mb)
Winds: from the S (180 degrees) at 12 MPH (10 knots; 5.1 m/s)
Visibility: 6 or more miles (10+ km)
Ceiling: at least 12,000 feet AGL
Clouds: few clouds at 1300 feet AGL
Weather: no significant weather observed at this time

METAR text: DXXX 242000Z 20010KT 9999 FEW013 29/26 Q1011 NOSIG
Conditions at: DXXX (LOME/TOKOIN (MIL, TG) observed 2000 UTC 24 March 2019
Temperature: 29.0°C (84°F)
Dewpoint: 26.0°C (79°F) [RH = 84%]
Pressure (altimeter): 29.85 inches Hg (1011.0 mb)
Winds: from the SSW (200 degrees) at 12 MPH (10 knots; 5.1 m/s)
Visibility: 6 or more miles (10+ km)
Ceiling: at least 12,000 feet AGL
Clouds: few clouds at 1300 feet AGL
Weather: no significant weather observed at this time

METAR text: DXXX 241900Z 20011KT 9999 FEW013 29/26 Q1010 NOSIG
Conditions at: DXXX (LOME/TOKOIN (MIL, TG) observed 1900 UTC 24 March 2019
Temperature: 29.0°C (84°F)
Dewpoint: 26.0°C (79°F) [RH = 84%]
Pressure (altimeter): 29.82 inches Hg (1010.0 mb)
Winds: from the SSW (200 degrees) at 13 MPH (11 knots; 5.7 m/s)
Visibility: 6 or more miles (10+ km)
Ceiling: at least 12,000 feet AGL
Clouds: few clouds at 1300 feet AGL
Weather: no significant weather observed at this time

METAR text: DXXX 241800Z 20012KT 9999 FEW013 29/26 Q1010 NOSIG
Conditions at: DXXX (LOME/TOKOIN (MIL, TG) observed 1800 UTC 24 March 2019
Temperature: 29.0°C (84°F)
Dewpoint: 26.0°C (79°F) [RH = 84%]
Pressure (altimeter): 29.82 inches Hg (1010.0 mb)
Winds: from the SSW (200 degrees) at 14 MPH (12 knots; 6.2 m/s)
Visibility: 6 or more miles (10+ km)
Ceiling: at least 12,000 feet AGL
Clouds: few clouds at 1300 feet AGL
Weather: no significant weather observed at this time

METAR text: DXXX 241700Z 21010KT 9999 FEW013 FEW020CB 30/25 Q1010 NOSIG
Conditions at: DXXX (LOME/TOKOIN (MIL, TG) observed 1700 UTC 24 March 2019
Temperature: 30.0°C (86°F)
Dewpoint: 25.0°C (77°F) [RH = 75%]
Pressure (altimeter): 29.82 inches Hg (1010.0 mb)
Winds: from the SSW (210 degrees) at 12 MPH (10 knots; 5.1 m/s)
Visibility: 6 or more miles (10+ km)
Ceiling: at least 12,000 feet AGL
Clouds: few clouds at 1300 feet AGL
few clouds at 2000 feet AGL
Weather: no significant weather observed at this time

METAR text: DXXX 241600Z 21013KT 9999 SCT014 FEW020CB 31/25 Q1009 NOSIG
Conditions at: DXXX (LOME/TOKOIN (MIL, TG) observed 1600 UTC 24 March 2019
Temperature: 31.0°C (88°F)
Dewpoint: 25.0°C (77°F) [RH = 71%]
Pressure (altimeter): 29.79 inches Hg (1009.0 mb)
Winds: from the SSW (210 degrees) at 15 MPH (13 knots; 6.7 m/s)
Visibility: 6 or more miles (10+ km)
Ceiling: at least 12,000 feet AGL
Clouds: scattered clouds at 1400 feet AGL
few clouds at 2000 feet AGL
Weather: no significant weather observed at this time

METAR text: DXXX 241500Z 21011KT 180V240 9999 FEW014 FEW020CB 31/24 Q1009 NOSIG
Conditions at: DXXX (LOME/TOKOIN (MIL, TG) observed 1500 UTC 24 March 2019
Temperature: 31.0°C (88°F)
Dewpoint: 24.0°C (75°F) [RH = 66%]
Pressure (altimeter): 29.79 inches Hg (1009.0 mb)
Winds: from the SSW (210 degrees) at 13 MPH (11 knots; 5.7 m/s)
Visibility: 6 or more miles (10+ km)
Ceiling: at least 12,000 feet AGL
Clouds: few clouds at 1400 feet AGL
few clouds at 2000 feet AGL
Weather: no significant weather observed at this time

METAR text: DXXX 241400Z 20012KT 9999 FEW014 FEW020CB 32/25 Q1010 NOSIG
Conditions at: DXXX (LOME/TOKOIN (MIL, TG) observed 1400 UTC 24 March 2019
Temperature: 32.0°C (90°F)
Dewpoint: 25.0°C (77°F) [RH = 67%]
Pressure (altimeter): 29.82 inches Hg (1010.0 mb)
Winds: from the SSW (200 degrees) at 14 MPH (12 knots; 6.2 m/s)
Visibility: 6 or more miles (10+ km)
Ceiling: at least 12,000 feet AGL
Clouds: few clouds at 1400 feet AGL
few clouds at 2000 feet AGL
Weather: no significant weather observed at this time

METAR text: DXXX 241300Z 21015KT 180V240 9999 FEW014 FEW020CB 32/25 Q1010 NOSIG
Conditions at: DXXX (LOME/TOKOIN (MIL, TG) observed 1300 UTC 24 March 2019
Temperature: 32.0°C (90°F)
Dewpoint: 25.0°C (77°F) [RH = 67%]
Pressure (altimeter): 29.82 inches Hg (1010.0 mb)
Winds: from the SSW (210 degrees) at 17 MPH (15 knots; 7.7 m/s)
Visibility: 6 or more miles (10+ km)
Ceiling: at least 12,000 feet AGL
Clouds: few clouds at 1400 feet AGL
few clouds at 2000 feet AGL
Weather: no significant weather observed at this time

METAR text: DXXX 241200Z 21014KT 180V240 9999 SCT014 FEW020CB 32/25 Q1011 NOSIG
Conditions at: DXXX (LOME/TOKOIN (MIL, TG) observed 1200 UTC 24 March 2019
Temperature: 32.0°C (90°F)
Dewpoint: 25.0°C (77°F) [RH = 67%]
Pressure (altimeter): 29.85 inches Hg (1011.0 mb)
Winds: from the SSW (210 degrees) at 16 MPH (14 knots; 7.2 m/s)
Visibility: 6 or more miles (10+ km)
Ceiling: at least 12,000 feet AGL
Clouds: scattered clouds at 1400 feet AGL
few clouds at 2000 feet AGL
Weather: no significant weather observed at this time

METAR text: DXXX 241100Z 21011KT 9999 SCT014 32/25 Q1011 NOSIG
Conditions at: DXXX (LOME/TOKOIN (MIL, TG) observed 1100 UTC 24 March 2019
Temperature: 32.0°C (90°F)
Dewpoint: 25.0°C (77°F) [RH = 67%]
Pressure (altimeter): 29.85 inches Hg (1011.0 mb)
Winds: from the SSW (210 degrees) at 13 MPH (11 knots; 5.7 m/s)
Visibility: 6 or more miles (10+ km)
Ceiling: at least 12,000 feet AGL
Clouds: scattered clouds at 1400 feet AGL
Weather: no significant weather observed at this time

METAR text: DXXX 241000Z 25011KT 210V270 9999 SCT014 31/25 Q1012 NOSIG
Conditions at: DXXX (LOME/TOKOIN (MIL, TG) observed 1000 UTC 24 March 2019
Temperature: 31.0°C (88°F)
Dewpoint: 25.0°C (77°F) [RH = 71%]
Pressure (altimeter): 29.88 inches Hg (1012.0 mb)
Winds: from the WSW (250 degrees) at 13 MPH (11 knots; 5.7 m/s)
Visibility: 6 or more miles (10+ km)
Ceiling: at least 12,000 feet AGL
Clouds: scattered clouds at 1400 feet AGL
Weather: no significant weather observed at this time

METAR text: DXXX 240900Z 25012KT 210V280 9999 SCT013 30/25 Q1011 NOSIG
Conditions at: DXXX (LOME/TOKOIN (MIL, TG) observed 0900 UTC 24 March 2019
Temperature: 30.0°C (86°F)
Dewpoint: 25.0°C (77°F) [RH = 75%]
Pressure (altimeter): 29.85 inches Hg (1011.0 mb)
Winds: from the WSW (250 degrees) at 14 MPH (12 knots; 6.2 m/s)
Visibility: 6 or more miles (10+ km)
Ceiling: at least 12,000 feet AGL
Clouds: scattered clouds at 1300 feet AGL
Weather: no significant weather observed at this time

METAR text: DXXX 240800Z 25010KT 210V270 9999 SCT013 29/26 Q1011 NOSIG
Conditions at: DXXX (LOME/TOKOIN (MIL, TG) observed 0800 UTC 24 March 2019
Temperature: 29.0°C (84°F)
Dewpoint: 26.0°C (79°F) [RH = 84%]
Pressure (altimeter): 29.85 inches Hg (1011.0 mb)
Winds: from the WSW (250 degrees) at 12 MPH (10 knots; 5.1 m/s)
Visibility: 6 or more miles (10+ km)
Ceiling: at least 12,000 feet AGL
Clouds: scattered clouds at 1300 feet AGL
Weather: no significant weather observed at this time

METAR text: DXXX 240700Z 24007KT 9999 FEW010 28/26 Q1010 NOSIG
Conditions at: DXXX (LOME/TOKOIN (MIL, TG) observed 0700 UTC 24 March 2019
Temperature: 28.0°C (82°F)
Dewpoint: 26.0°C (79°F) [RH = 89%]
Pressure (altimeter): 29.82 inches Hg (1010.0 mb)
Winds: from the WSW (240 degrees) at 8 MPH (7 knots; 3.6 m/s)
Visibility: 6 or more miles (10+ km)
Ceiling: at least 12,000 feet AGL
Clouds: few clouds at 1000 feet AGL
Weather: no significant weather observed at this time

Forecast for: DXXX (LOME/TOKOIN (MIL, TG)
Text: TAF DXXX 251700Z 2518/2624 20010KT 9999 FEW013
Forecast period: 1800 UTC 25 March 2019 to 0000 UTC 27 March 2019
Forecast type: FROM: standard forecast or significant change
Winds: from the SSW (200 degrees) at 12 MPH (10 knots; 5.1 m/s)
Visibility: 6 or more miles 10+ km)
Ceiling: at least 12,000 feet AGL
Clouds: few clouds at 1300 feet AGL
Weather: no significant weather forecast for this period